Time;durP1;ratioP1;P1;durP2;ratioP2;P2;SDS_P1;SDS_P2;PMS_P1;PMS_P2;Temp;Humidity;BMP_temperature;BMP_pressure;BME280_temperature;BME280_humidity;BME280_pressure;Samples;Min_cycle;Max_cycle;Signal;HPM_P1;HPM_P2
2022/01/28 00:05:04;;;;;;;16.15;8.35;;;7.30;99.90;;;;;;5039759;28;20204;-86
2022/01/28 00:07:29;;;;;;;15.50;6.38;;;7.30;99.90;;;;;;5039317;28;20696;-87
2022/01/28 00:09:55;;;;;;;14.43;6.65;;;7.30;99.90;;;;;;5040586;28;20206;-86
2022/01/28 00:12:21;;;;;;;12.27;7.45;;;7.10;99.90;;;;;;5040291;28;20546;-81
2022/01/28 00:15:03;;;;;;;13.75;8.45;;;7.30;99.90;;;;;;5041392;28;20655;-82
2022/01/28 00:18:30;;;;;;;23.15;8.32;;;7.30;99.90;;;;;;5055208;28;20191;-78
2022/01/28 00:39:45;;;;;;;7.35;6.63;;;7.30;99.90;;;;;;5039489;28;20172;-87
2022/01/28 00:42:11;;;;;;;13.63;7.40;;;7.10;99.90;;;;;;5040825;28;20191;-87
2022/01/28 00:44:37;;;;;;;9.93;7.32;;;7.00;99.90;;;;;;5042668;28;20203;-84
2022/01/28 00:47:03;;;;;;;10.57;8.02;;;6.90;99.90;;;;;;5044671;28;20198;-84
2022/01/28 00:49:29;;;;;;;15.82;7.45;;;7.10;99.90;;;;;;5051340;28;20175;-87
2022/01/28 00:51:55;;;;;;;20.42;7.47;;;7.10;99.90;;;;;;5051891;28;20198;-87
2022/01/28 00:54:21;;;;;;;19.23;8.73;;;7.00;99.90;;;;;;5052880;28;20164;-78
2022/01/28 00:56:47;;;;;;;11.48;7.53;;;7.10;99.90;;;;;;5040605;28;20167;-85
2022/01/28 00:59:13;;;;;;;13.57;7.20;;;7.10;99.90;;;;;;5037287;28;20568;-79
2022/01/28 01:01:39;;;;;;;8.52;6.97;;;7.10;99.90;;;;;;5038779;28;20698;-86
2022/01/28 01:04:05;;;;;;;10.60;6.93;;;7.10;99.90;;;;;;5038345;28;20188;-86
2022/01/28 01:06:31;;;;;;;11.75;6.97;;;7.10;99.90;;;;;;5038307;28;20194;-86
2022/01/28 01:08:58;;;;;;;13.80;7.13;;;7.10;99.90;;;;;;5037960;28;20218;-87
2022/01/28 01:11:25;;;;;;;15.05;7.47;;;7.10;99.90;;;;;;5038645;28;20184;-87
2022/01/28 01:13:51;;;;;;;19.05;6.85;;;7.10;99.90;;;;;;5039209;28;20639;-87
2022/01/28 01:16:23;;;;;;;14.82;6.88;;;6.90;99.90;;;;;;5041454;28;20167;-82
2022/01/28 01:19:03;;;;;;;14.35;6.93;;;6.90;99.90;;;;;;5037547;28;20191;-86
2022/01/28 01:21:31;;;;;;;23.55;7.22;;;7.10;99.90;;;;;;5038147;28;20192;-86
2022/01/28 01:23:58;;;;;;;20.27;7.75;;;7.10;99.90;;;;;;5037988;28;20666;-82
2022/01/28 01:26:33;;;;;;;15.45;6.88;;;7.00;99.90;;;;;;5039608;28;20288;-86
2022/01/28 01:29:00;;;;;;;12.57;6.47;;;6.60;99.90;;;;;;5042157;28;20176;-82
2022/01/28 01:31:27;;;;;;;19.92;7.82;;;6.60;99.90;;;;;;5042910;28;20247;-83
2022/01/28 01:34:04;;;;;;;22.52;6.93;;;6.60;99.90;;;;;;5040238;28;20191;-84
2022/01/28 01:36:30;;;;;;;16.25;7.05;;;6.60;99.90;;;;;;5042284;28;20620;-86
2022/01/28 01:38:55;;;;;;;16.10;6.97;;;6.70;99.90;;;;;;5041855;28;20171;-87
2022/01/28 01:41:33;;;;;;;14.02;6.35;;;6.60;99.90;;;;;;5038207;28;20188;-86
2022/01/28 01:44:08;;;;;;;15.82;6.95;;;6.50;99.90;;;;;;5037377;28;20196;-85
2022/01/28 01:47:17;;;;;;;12.57;6.53;;;6.50;99.90;;;;;;5037495;28;20167;-86
2022/01/28 01:52:12;;;;;;;6.85;6.18;;;6.40;99.90;;;;;;5038579;28;20256;-85
2022/01/28 01:54:41;;;;;;;12.48;6.68;;;6.40;99.90;;;;;;5037410;28;20637;-83
2022/01/28 01:57:09;;;;;;;9.68;7.65;;;6.40;99.90;;;;;;5037276;28;20180;-85
2022/01/28 01:59:38;;;;;;;17.13;6.65;;;6.30;99.90;;;;;;5038011;28;20170;-84
2022/01/28 02:02:06;;;;;;;15.63;7.10;;;6.40;99.90;;;;;;5022473;28;20199;-85
2022/01/28 02:04:33;;;;;;;19.58;7.07;;;6.30;99.90;;;;;;5040872;28;20201;-82
2022/01/28 02:06:59;;;;;;;15.70;6.38;;;6.40;99.90;;;;;;5020341;28;20242;-81
2022/01/28 02:09:25;;;;;;;8.38;5.85;;;6.30;99.90;;;;;;5038259;28;20164;-85
2022/01/28 02:11:56;;;;;;;11.05;6.05;;;6.20;99.90;;;;;;5039853;28;20202;-83
2022/01/28 02:14:21;;;;;;;19.25;7.63;;;6.00;99.90;;;;;;5038034;28;20176;-83
2022/01/28 02:16:47;;;;;;;14.45;6.35;;;6.10;99.90;;;;;;5037914;28;20663;-87
2022/01/28 02:19:13;;;;;;;6.38;5.75;;;6.00;99.90;;;;;;5038583;28;20160;-86
2022/01/28 02:21:47;;;;;;;14.65;7.05;;;6.00;99.90;;;;;;5038981;28;20207;-85
2022/01/28 02:24:16;;;;;;;17.75;6.50;;;6.00;99.90;;;;;;5037098;28;20200;-86
2022/01/28 02:26:48;;;;;;;8.43;6.13;;;6.00;99.90;;;;;;5040023;28;20231;-84
2022/01/28 02:29:25;;;;;;;13.38;6.65;;;5.90;99.90;;;;;;5037905;28;20211;-85
2022/01/28 02:31:51;;;;;;;7.50;6.72;;;5.90;99.90;;;;;;5038114;28;20179;-85
2022/01/28 02:34:19;;;;;;;12.55;6.90;;;5.90;99.90;;;;;;5040095;28;20190;-87
2022/01/28 02:36:45;;;;;;;11.63;6.95;;;6.00;99.90;;;;;;5037493;28;20176;-87
2022/01/28 02:39:11;;;;;;;17.15;6.25;;;6.10;99.90;;;;;;5037670;28;20168;-82
2022/01/28 02:41:41;;;;;;;9.05;6.10;;;6.10;99.90;;;;;;5033051;28;20199;-81
2022/01/28 02:44:17;;;;;;;21.15;7.05;;;5.90;99.90;;;;;;5034379;28;20681;-82
2022/01/28 02:46:55;;;;;;;9.18;6.43;;;5.90;99.90;;;;;;5033817;28;20235;-87
2022/01/28 02:49:21;;;;;;;10.68;6.15;;;5.90;99.90;;;;;;5049940;28;20168;-79
2022/01/28 02:51:47;;;;;;;10.23;6.32;;;5.90;99.90;;;;;;5053176;28;20188;-81
2022/01/28 02:54:16;;;;;;;11.98;6.47;;;5.90;99.90;;;;;;5056542;28;20243;-82
2022/01/28 02:57:00;;;;;;;14.75;6.95;;;5.90;99.90;;;;;;5048708;28;20245;-87
2022/01/28 02:59:26;;;;;;;13.30;6.45;;;5.90;99.90;;;;;;5035299;28;20594;-84
2022/01/28 03:01:51;;;;;;;12.88;7.15;;;6.00;99.90;;;;;;5037489;28;20211;-87
2022/01/28 03:04:49;;;;;;;22.48;6.93;;;6.00;99.90;;;;;;5037467;28;20282;-84
2022/01/28 03:07:05;;;;;;;8.25;6.95;;;5.90;99.90;;;;;;5036987;28;20174;-87
2022/01/28 03:09:48;;;;;;;15.25;6.90;;;5.80;99.90;;;;;;5037270;28;20533;-86
2022/01/28 03:12:17;;;;;;;11.10;6.50;;;5.90;99.90;;;;;;5040756;28;20202;-86
2022/01/28 03:17:54;;;;;;;10.75;6.47;;;5.80;99.90;;;;;;5037254;28;20175;-87
2022/01/28 03:22:43;;;;;;;14.52;6.00;;;5.50;99.90;;;;;;5037263;28;20207;-86
2022/01/28 03:25:09;;;;;;;10.70;6.55;;;5.50;99.90;;;;;;5037138;28;20253;-83
2022/01/28 03:30:07;;;;;;;14.43;5.85;;;5.70;99.90;;;;;;5038051;28;20176;-86
2022/01/28 03:32:32;;;;;;;11.18;6.10;;;5.70;99.90;;;;;;5036978;28;20200;-87
2022/01/28 03:34:58;;;;;;;8.40;5.78;;;5.80;99.90;;;;;;5037468;28;20195;-86
2022/01/28 03:37:24;;;;;;;14.75;6.45;;;5.90;99.90;;;;;;5037704;28;20655;-81
2022/01/28 03:39:49;;;;;;;9.30;5.85;;;5.90;99.90;;;;;;5037038;28;20243;-87
2022/01/28 03:42:15;;;;;;;7.45;6.25;;;6.00;99.90;;;;;;5036751;28;20191;-87
2022/01/28 03:44:41;;;;;;;11.18;6.20;;;6.00;99.90;;;;;;5037299;28;20219;-85
2022/01/28 03:47:06;;;;;;;11.50;6.60;;;6.00;99.90;;;;;;5037007;28;20168;-81
2022/01/28 03:49:32;;;;;;;13.55;6.93;;;5.80;99.90;;;;;;5037388;28;20250;-84
2022/01/28 03:51:57;;;;;;;12.68;6.20;;;5.60;99.90;;;;;;5036895;28;20187;-85
2022/01/28 03:54:23;;;;;;;7.25;6.55;;;5.60;99.90;;;;;;5036584;28;20196;-87
2022/01/28 03:56:49;;;;;;;11.60;7.13;;;5.60;99.90;;;;;;5035204;28;20225;-86
2022/01/28 03:59:14;;;;;;;11.93;6.97;;;5.40;99.90;;;;;;5037061;28;20184;-87
2022/01/28 04:01:41;;;;;;;10.82;6.00;;;5.50;99.90;;;;;;5036536;28;20195;-86
2022/01/28 04:12:21;;;;;;;8.57;5.88;;;5.40;99.90;;;;;;5035881;28;20291;-87
2022/01/28 04:17:25;;;;;;;14.25;5.72;;;5.70;99.90;;;;;;5036082;28;20186;-82
2022/01/28 04:19:52;;;;;;;6.95;6.20;;;5.90;99.90;;;;;;5035724;28;20613;-86
2022/01/28 04:22:19;;;;;;;12.02;5.97;;;5.90;99.90;;;;;;5035592;28;20196;-87
2022/01/28 04:24:45;;;;;;;11.32;6.47;;;5.90;99.90;;;;;;5035319;28;20187;-85
2022/01/28 04:27:11;;;;;;;9.73;6.65;;;5.90;99.90;;;;;;5035214;28;20639;-80
2022/01/28 04:29:36;;;;;;;15.27;6.90;;;5.70;99.90;;;;;;5035306;28;20232;-82
2022/01/28 04:32:03;;;;;;;24.98;8.18;;;5.70;99.90;;;;;;5035690;28;20180;-87
2022/01/28 04:34:28;;;;;;;12.82;6.90;;;5.60;99.90;;;;;;5036142;28;20171;-85
2022/01/28 04:37:12;;;;;;;18.13;6.57;;;5.40;99.90;;;;;;5036725;28;20156;-84
2022/01/28 04:40:05;;;;;;;14.18;6.15;;;5.30;99.90;;;;;;5035571;28;20168;-84
2022/01/28 04:45:11;;;;;;;11.15;6.28;;;5.40;99.90;;;;;;5036314;28;20218;-84
2022/01/28 04:50:23;;;;;;;16.40;6.43;;;5.40;99.90;;;;;;5035418;28;20183;-80
2022/01/28 04:53:11;;;;;;;8.82;5.57;;;5.30;99.90;;;;;;5034985;28;20271;-84
2022/01/28 05:11:47;;;;;;;19.90;7.25;;;5.20;99.90;;;;;;5053900;28;20215;-83
2022/01/28 05:27:28;;;;;;;12.30;6.35;;;5.20;99.90;;;;;;5034291;28;20164;-80
2022/01/28 05:29:53;;;;;;;14.18;6.57;;;5.00;99.90;;;;;;5034390;28;20222;-87
2022/01/28 05:32:19;;;;;;;10.60;6.20;;;4.90;99.90;;;;;;5034277;28;20188;-85
2022/01/28 05:34:45;;;;;;;9.25;6.15;;;5.00;99.90;;;;;;5033098;28;20179;-80
2022/01/28 05:37:11;;;;;;;11.98;6.47;;;5.10;99.90;;;;;;5034228;28;20581;-85
2022/01/28 05:39:36;;;;;;;9.27;6.18;;;5.40;99.90;;;;;;5034306;28;20167;-83
2022/01/28 05:42:03;;;;;;;11.82;6.13;;;5.40;99.90;;;;;;5033306;28;20192;-85
2022/01/28 05:44:29;;;;;;;10.18;6.78;;;5.20;99.90;;;;;;5036375;28;20211;-85
2022/01/28 05:47:02;;;;;;;8.93;5.78;;;5.00;99.90;;;;;;5038669;28;20521;-79
2022/01/28 05:49:28;;;;;;;10.00;6.28;;;4.90;99.90;;;;;;5039627;28;20172;-84
2022/01/28 05:51:54;;;;;;;10.65;5.78;;;5.00;99.90;;;;;;5041932;28;20571;-86
2022/01/28 05:54:19;;;;;;;15.02;6.97;;;5.10;99.90;;;;;;5041491;28;20171;-78
2022/01/28 05:56:45;;;;;;;10.60;5.95;;;5.20;99.90;;;;;;5045481;28;20171;-78
2022/01/28 05:59:10;;;;;;;10.10;6.20;;;5.20;99.90;;;;;;5041902;28;20164;-81
2022/01/28 06:01:36;;;;;;;12.30;6.28;;;5.20;99.90;;;;;;5045508;28;20788;-85
2022/01/28 06:04:02;;;;;;;11.07;6.60;;;5.20;99.90;;;;;;5044934;28;20198;-86
2022/01/28 06:06:28;;;;;;;15.05;6.25;;;5.30;99.90;;;;;;5045215;28;20178;-85
2022/01/28 06:08:55;;;;;;;9.38;6.97;;;5.20;99.90;;;;;;5043486;28;20176;-88
2022/01/28 06:11:23;;;;;;;9.35;6.40;;;5.30;99.90;;;;;;5043240;28;20198;-80
2022/01/28 06:13:48;;;;;;;13.35;6.35;;;5.20;99.90;;;;;;5044074;28;20160;-80
2022/01/28 06:16:15;;;;;;;12.77;6.55;;;5.30;99.90;;;;;;5043797;28;20182;-80
2022/01/28 06:18:42;;;;;;;8.68;6.32;;;5.20;99.90;;;;;;5042679;28;20160;-83
2022/01/28 06:21:09;;;;;;;12.75;7.07;;;5.10;99.90;;;;;;5022566;28;20203;-78
2022/01/28 06:23:35;;;;;;;7.65;6.15;;;5.10;99.90;;;;;;5038727;28;20178;-80
2022/01/28 06:26:02;;;;;;;17.60;7.20;;;5.00;99.90;;;;;;5038040;28;20172;-86
2022/01/28 06:28:27;;;;;;;20.15;9.25;;;5.10;99.90;;;;;;5037831;28;20241;-87
2022/01/28 06:30:54;;;;;;;17.38;9.88;;;5.20;99.90;;;;;;5039248;28;20172;-85
2022/01/28 06:33:20;;;;;;;17.77;7.93;;;5.30;99.90;;;;;;5039783;28;20175;-83
2022/01/28 06:35:48;;;;;;;18.27;7.10;;;5.30;99.90;;;;;;5047491;28;20283;-83
2022/01/28 06:38:15;;;;;;;9.48;6.60;;;5.30;99.90;;;;;;5045436;28;20267;-81
2022/01/28 06:40:41;;;;;;;12.93;7.03;;;5.20;99.90;;;;;;5047695;28;20144;-82
2022/01/28 06:43:12;;;;;;;21.02;7.95;;;5.10;99.90;;;;;;5048406;28;20184;-86
2022/01/28 06:45:42;;;;;;;20.02;7.18;;;5.20;99.90;;;;;;5045446;28;20239;-79
2022/01/28 06:48:12;;;;;;;18.50;6.82;;;5.00;99.90;;;;;;5044883;28;20164;-82
2022/01/28 06:50:44;;;;;;;15.07;7.78;;;4.90;99.90;;;;;;5042454;28;20194;-83
2022/01/28 06:53:12;;;;;;;12.10;7.25;;;5.00;99.90;;;;;;5044832;28;20644;-81
2022/01/28 06:55:38;;;;;;;16.63;7.85;;;5.10;99.90;;;;;;5047700;28;20621;-84
2022/01/28 06:58:07;;;;;;;21.02;7.97;;;5.20;99.90;;;;;;5044268;28;20171;-86
2022/01/28 07:00:37;;;;;;;22.98;8.88;;;5.40;99.90;;;;;;5047427;28;20255;-82
2022/01/28 07:03:11;;;;;;;16.38;9.25;;;5.30;99.90;;;;;;5011747;28;20188;-85
2022/01/28 07:05:38;;;;;;;20.50;9.40;;;5.30;99.90;;;;;;5040550;28;20242;-77
2022/01/28 07:08:05;;;;;;;25.38;10.45;;;5.40;99.90;;;;;;5040613;28;20655;-80
2022/01/28 07:10:32;;;;;;;15.80;9.30;;;5.60;99.90;;;;;;5039676;28;20710;-79
2022/01/28 07:12:58;;;;;;;28.23;10.40;;;5.60;99.90;;;;;;5037362;28;20322;-80
2022/01/28 07:15:25;;;;;;;17.80;9.70;;;5.70;99.90;;;;;;5042512;28;20164;-87
2022/01/28 07:17:57;;;;;;;20.50;9.35;;;5.80;99.90;;;;;;5035079;28;20175;-84
2022/01/28 07:20:22;;;;;;;19.90;9.80;;;5.90;99.90;;;;;;5036351;28;20170;-86
2022/01/28 07:22:48;;;;;;;17.65;8.95;;;5.80;99.90;;;;;;5036092;28;20211;-79
2022/01/28 07:25:14;;;;;;;25.23;10.13;;;5.70;99.90;;;;;;5035506;28;20221;-78
2022/01/28 07:27:40;;;;;;;21.70;10.05;;;5.60;99.90;;;;;;5035872;28;20168;-81
2022/01/28 07:30:08;;;;;;;28.33;12.20;;;5.70;99.90;;;;;;5036119;28;20171;-84
2022/01/28 07:32:33;;;;;;;21.38;11.15;;;5.80;99.90;;;;;;5036133;28;20184;-84
2022/01/28 07:34:59;;;;;;;30.40;12.38;;;5.90;99.90;;;;;;5034546;28;20715;-81
2022/01/28 07:37:24;;;;;;;30.98;13.75;;;5.70;99.90;;;;;;5035458;28;20301;-82
2022/01/28 07:39:50;;;;;;;23.92;12.20;;;5.70;99.90;;;;;;5034387;28;20172;-80
2022/01/28 07:42:17;;;;;;;23.55;12.90;;;5.90;99.90;;;;;;5035176;28;20233;-80
2022/01/28 07:44:43;;;;;;;24.80;13.75;;;5.60;99.90;;;;;;5034817;28;20207;-81
2022/01/28 07:47:09;;;;;;;22.98;12.68;;;5.50;99.90;;;;;;5042972;28;20179;-80
2022/01/28 07:49:34;;;;;;;23.70;12.98;;;5.20;99.90;;;;;;5046606;28;20190;-81
2022/01/28 07:52:00;;;;;;;20.85;12.93;;;5.20;99.90;;;;;;5053823;28;20192;-85
2022/01/28 07:54:26;;;;;;;27.70;12.23;;;5.30;99.90;;;;;;5043246;28;20187;-85
2022/01/28 07:56:53;;;;;;;21.77;13.10;;;5.20;99.90;;;;;;5039516;28;20553;-81
2022/01/28 07:59:20;;;;;;;29.25;15.52;;;5.20;99.90;;;;;;5037550;28;20259;-83
2022/01/28 08:01:46;;;;;;;26.60;15.75;;;5.30;99.90;;;;;;5040687;28;20188;-82
2022/01/28 08:04:11;;;;;;;25.65;13.88;;;5.30;99.90;;;;;;5050683;28;20205;-84
2022/01/28 08:06:37;;;;;;;29.23;15.57;;;5.60;99.90;;;;;;5064008;28;20194;-84
2022/01/28 08:09:04;;;;;;;29.90;14.25;;;5.80;99.90;;;;;;5063612;28;20169;-81
2022/01/28 08:11:29;;;;;;;22.05;12.65;;;5.80;99.90;;;;;;5065278;28;20175;-81
2022/01/28 08:13:56;;;;;;;24.02;13.73;;;5.80;99.90;;;;;;5064657;28;20167;-82
2022/01/28 08:16:22;;;;;;;22.23;13.73;;;5.80;99.90;;;;;;5062192;28;20328;-82
2022/01/28 08:18:47;;;;;;;23.48;13.57;;;5.60;99.90;;;;;;5060171;28;20206;-83
2022/01/28 08:21:15;;;;;;;48.10;18.80;;;5.70;99.90;;;;;;5061112;28;20199;-82
2022/01/28 08:23:40;;;;;;;34.40;13.50;;;5.70;99.90;;;;;;5063339;28;20210;-85
2022/01/28 08:26:08;;;;;;;21.40;13.30;;;5.80;99.90;;;;;;5063384;28;20171;-81
2022/01/28 08:28:34;;;;;;;47.95;15.82;;;5.70;99.90;;;;;;5061642;28;20186;-82
2022/01/28 08:31:00;;;;;;;64.00;16.67;;;5.70;99.90;;;;;;5056030;28;20168;-84
2022/01/28 08:33:26;;;;;;;28.30;13.95;;;5.90;99.90;;;;;;5057859;28;20639;-78
2022/01/28 08:35:53;;;;;;;29.08;13.95;;;5.90;99.90;;;;;;5062844;28;20302;-81
2022/01/28 08:38:30;;;;;;;28.95;14.52;;;5.80;99.90;;;;;;5052273;28;20186;-82
2022/01/28 08:40:58;;;;;;;26.38;14.02;;;5.90;99.90;;;;;;5059041;28;20178;-86
2022/01/28 08:43:24;;;;;;;34.70;15.10;;;6.00;99.90;;;;;;5045974;28;20181;-78
2022/01/28 08:45:50;;;;;;;25.52;13.07;;;6.00;99.90;;;;;;5049247;28;20218;-80
2022/01/28 08:48:15;;;;;;;30.38;13.98;;;6.10;99.90;;;;;;5049431;28;20271;-82
2022/01/28 08:50:42;;;;;;;24.90;13.90;;;6.10;99.90;;;;;;5052796;28;20238;-79
2022/01/28 08:53:11;;;;;;;25.85;14.25;;;6.20;99.90;;;;;;5057061;28;20179;-83
2022/01/28 08:55:38;;;;;;;31.27;14.65;;;6.40;99.90;;;;;;5053482;28;20174;-78
2022/01/28 08:58:05;;;;;;;26.92;14.63;;;6.60;99.90;;;;;;5055087;28;20171;-79
2022/01/28 09:00:30;;;;;;;36.17;12.98;;;6.60;99.90;;;;;;5057125;28;20171;-78
2022/01/28 09:02:56;;;;;;;24.80;13.80;;;6.70;99.90;;;;;;5056363;28;20681;-79
2022/01/28 09:05:22;;;;;;;29.45;13.80;;;6.40;99.90;;;;;;5054329;28;20356;-81
2022/01/28 09:07:48;;;;;;;35.92;15.80;;;6.50;99.90;;;;;;5055171;28;20163;-82
2022/01/28 09:10:18;;;;;;;23.10;13.00;;;6.80;99.90;;;;;;5054637;28;20170;-82
2022/01/28 09:15:29;;;;;;;24.95;13.98;;;6.80;99.90;;;;;;5034962;28;20672;-82
2022/01/28 09:17:56;;;;;;;24.20;13.20;;;6.90;99.90;;;;;;5034243;28;20172;-78
2022/01/28 09:20:22;;;;;;;20.85;13.75;;;6.80;99.90;;;;;;5038899;28;20170;-84
2022/01/28 09:22:47;;;;;;;32.03;14.10;;;6.80;99.90;;;;;;5056666;28;20214;-81
2022/01/28 09:25:13;;;;;;;27.20;13.20;;;6.90;99.90;;;;;;5055000;28;20209;-81
2022/01/28 09:27:40;;;;;;;25.70;12.82;;;6.70;99.90;;;;;;5056499;28;20617;-84
2022/01/28 09:30:06;;;;;;;34.17;14.15;;;6.80;99.90;;;;;;5055460;28;20148;-81
2022/01/28 09:32:32;;;;;;;19.98;13.25;;;6.90;99.90;;;;;;5068637;28;20241;-85
2022/01/28 09:34:57;;;;;;;28.13;14.80;;;6.70;99.90;;;;;;5069843;28;20227;-82
2022/01/28 09:37:23;;;;;;;32.33;14.63;;;6.70;99.90;;;;;;5068237;28;20155;-81
2022/01/28 09:39:49;;;;;;;24.15;14.60;;;6.80;99.90;;;;;;5063706;28;20187;-80
2022/01/28 09:42:19;;;;;;;27.50;14.98;;;6.80;99.90;;;;;;5059773;28;20551;-80
2022/01/28 09:44:45;;;;;;;29.20;16.45;;;7.20;99.90;;;;;;5058977;28;20226;-89
2022/01/28 09:47:11;;;;;;;23.40;14.63;;;6.80;99.90;;;;;;5054069;28;20200;-84
2022/01/28 09:49:42;;;;;;;28.75;13.98;;;6.70;99.90;;;;;;5048912;28;20195;-77
2022/01/28 09:52:12;;;;;;;24.52;14.23;;;6.90;99.90;;;;;;5060802;28;20206;-79
2022/01/28 09:54:38;;;;;;;34.10;15.27;;;6.90;99.90;;;;;;5056596;28;20178;-77
2022/01/28 09:57:06;;;;;;;24.50;12.82;;;6.90;99.90;;;;;;5055821;28;20170;-77
2022/01/28 09:59:34;;;;;;;23.17;12.48;;;6.70;99.90;;;;;;5059232;28;20157;-78
2022/01/28 10:02:00;;;;;;;33.58;13.00;;;6.60;99.90;;;;;;5059975;28;20195;-77
2022/01/28 10:04:26;;;;;;;31.90;13.80;;;6.40;99.90;;;;;;5061709;28;20674;-77
2022/01/28 10:06:56;;;;;;;27.35;14.23;;;6.30;99.90;;;;;;5059514;28;20191;-81
2022/01/28 10:09:23;;;;;;;23.17;13.32;;;6.30;99.90;;;;;;5069330;28;20146;-81
2022/01/28 10:11:53;;;;;;;22.00;13.20;;;6.50;99.90;;;;;;5071008;28;20171;-79
2022/01/28 10:14:23;;;;;;;25.90;12.00;;;6.50;99.90;;;;;;5071095;28;20178;-79
2022/01/28 10:16:57;;;;;;;24.10;13.35;;;6.40;99.90;;;;;;5074133;28;20171;-82
2022/01/28 10:19:25;;;;;;;23.67;13.23;;;6.20;99.90;;;;;;5077375;28;20146;-88
2022/01/28 10:21:56;;;;;;;35.38;14.57;;;6.50;99.90;;;;;;5067589;28;20225;-80
2022/01/28 10:24:26;;;;;;;25.77;14.20;;;6.60;99.90;;;;;;5071398;28;20210;-80
2022/01/28 10:27:14;;;;;;;27.80;12.68;;;6.40;99.90;;;;;;5077020;28;20189;-79
2022/01/28 10:29:43;;;;;;;30.30;12.82;;;6.50;99.90;;;;;;5077053;28;20221;-87
2022/01/28 10:32:17;;;;;;;31.17;12.25;;;6.40;99.90;;;;;;5071935;28;20212;-84
2022/01/28 10:34:50;;;;;;;23.67;12.88;;;6.60;99.90;;;;;;5049547;28;20179;-88
2022/01/28 10:37:33;;;;;;;23.48;13.18;;;6.80;99.90;;;;;;5067258;28;20182;-89
2022/01/28 10:40:00;;;;;;;22.63;13.55;;;6.70;99.90;;;;;;5065967;28;20171;-88
2022/01/28 10:42:36;;;;;;;30.90;13.93;;;6.90;99.90;;;;;;5066785;28;20198;-88
2022/01/28 10:45:11;;;;;;;18.58;12.82;;;7.10;99.90;;;;;;5066540;28;20207;-89
2022/01/28 10:47:55;;;;;;;33.00;11.68;;;7.20;99.90;;;;;;5073439;28;20715;-89
2022/01/28 10:50:30;;;;;;;19.10;13.63;;;7.30;99.90;;;;;;5070271;28;20171;-88
2022/01/28 10:53:33;;;;;;;24.48;13.10;;;7.20;99.90;;;;;;5066981;28;20187;-86
2022/01/28 10:56:00;;;;;;;23.27;13.98;;;7.30;99.90;;;;;;5074729;28;20155;-84
2022/01/28 10:58:28;;;;;;;25.55;14.20;;;7.50;99.90;;;;;;5076601;28;20167;-86
2022/01/28 11:00:58;;;;;;;25.30;13.80;;;7.60;99.90;;;;;;5069954;28;20305;-79
2022/01/28 11:03:26;;;;;;;25.08;14.55;;;7.70;99.90;;;;;;5069654;28;20167;-83
2022/01/28 11:05:59;;;;;;;21.67;13.95;;;7.50;99.90;;;;;;5052311;28;20211;-79
2022/01/28 11:08:34;;;;;;;26.67;14.23;;;7.30;99.90;;;;;;5067676;28;20203;-80
2022/01/28 11:11:01;;;;;;;23.02;14.35;;;7.20;99.90;;;;;;5069292;28;20162;-83
2022/01/28 11:13:28;;;;;;;33.05;15.95;;;7.20;99.90;;;;;;5065724;28;20163;-80
2022/01/28 11:15:54;;;;;;;24.30;13.73;;;7.50;99.90;;;;;;5067486;28;20164;-79
2022/01/28 11:18:21;;;;;;;28.20;15.90;;;7.60;99.90;;;;;;5071132;28;20169;-79
2022/01/28 11:21:05;;;;;;;30.15;14.52;;;7.80;99.90;;;;;;5071279;28;20239;-88
2022/01/28 11:23:52;;;;;;;29.52;14.80;;;7.70;99.90;;;;;;5069260;28;20201;-88
2022/01/28 11:26:38;;;;;;;19.58;13.48;;;7.60;99.90;;;;;;5064611;28;20254;-80
2022/01/28 11:29:19;;;;;;;23.27;14.88;;;7.50;99.90;;;;;;5063585;28;20221;-79
2022/01/28 11:31:51;;;;;;;17.60;13.20;;;7.20;99.90;;;;;;5059296;28;20200;-87
2022/01/28 11:34:34;;;;;;;26.65;15.48;;;7.00;99.90;;;;;;5061274;28;20167;-78
2022/01/28 11:37:03;;;;;;;21.33;14.88;;;7.30;99.90;;;;;;5059263;28;20167;-87
2022/01/28 11:39:35;;;;;;;29.17;14.60;;;7.10;99.90;;;;;;5056945;28;20195;-80
2022/01/28 11:42:25;;;;;;;27.52;14.27;;;6.80;99.90;;;;;;5057221;28;20221;-88
2022/01/28 11:44:50;;;;;;;24.95;13.20;;;6.90;99.90;;;;;;5056778;28;20207;-81
2022/01/28 11:47:39;;;;;;;31.15;14.85;;;7.10;99.90;;;;;;5057260;28;20520;-88
2022/01/28 11:50:09;;;;;;;23.95;15.77;;;7.00;99.90;;;;;;5058310;28;20223;-84
2022/01/28 11:52:40;;;;;;;25.52;15.55;;;7.10;99.90;;;;;;5059103;28;20214;-84
2022/01/28 11:55:15;;;;;;;25.65;16.17;;;7.40;99.90;;;;;;5059988;28;20211;-78
2022/01/28 11:58:07;;;;;;;27.60;15.73;;;7.40;99.90;;;;;;5065675;28;20182;-88
2022/01/28 12:00:39;;;;;;;26.98;15.55;;;7.40;99.90;;;;;;5050739;28;20215;-77
2022/01/28 12:03:18;;;;;;;31.05;15.57;;;7.50;99.90;;;;;;5039241;28;20180;-78
2022/01/28 12:06:03;;;;;;;25.77;14.45;;;7.60;99.90;;;;;;5044412;28;20927;-79
2022/01/28 12:08:31;;;;;;;28.33;15.38;;;7.70;99.90;;;;;;5062731;28;20191;-78
2022/01/28 12:11:01;;;;;;;30.98;15.85;;;7.90;99.90;;;;;;5064427;28;20498;-78
2022/01/28 12:13:32;;;;;;;27.67;15.43;;;7.80;99.90;;;;;;5063757;28;20160;-78
2022/01/28 12:16:10;;;;;;;28.95;16.30;;;7.80;99.90;;;;;;5060602;28;20643;-79
2022/01/28 12:18:57;;;;;;;25.35;15.68;;;8.00;99.90;;;;;;5062355;28;20198;-78
2022/01/28 12:21:31;;;;;;;32.88;17.35;;;8.20;99.90;;;;;;5068548;28;20216;-79
2022/01/28 12:24:19;;;;;;;31.50;16.27;;;8.50;99.90;;;;;;5066674;28;20654;-78
2022/01/28 12:27:07;;;;;;;24.10;15.10;;;8.10;99.90;;;;;;5068894;28;20167;-79
2022/01/28 12:29:59;;;;;;;37.70;15.80;;;8.00;99.90;;;;;;5068649;28;20695;-80
2022/01/28 12:32:28;;;;;;;24.63;15.25;;;8.00;99.90;;;;;;5064993;28;20206;-80
2022/01/28 12:34:54;;;;;;;30.45;16.88;;;7.70;99.90;;;;;;5065507;28;20178;-79
2022/01/28 12:37:23;;;;;;;29.85;16.80;;;8.00;99.90;;;;;;5062861;28;20639;-79
2022/01/28 12:40:13;;;;;;;23.92;15.82;;;8.00;99.90;;;;;;5060910;28;20182;-78
2022/01/28 12:42:39;;;;;;;36.80;18.85;;;8.00;99.90;;;;;;5060353;28;20237;-79
2022/01/28 12:45:05;;;;;;;34.63;18.40;;;8.10;99.90;;;;;;5056191;28;20246;-79
2022/01/28 12:47:33;;;;;;;44.38;19.77;;;8.00;99.90;;;;;;5056999;28;20167;-80
2022/01/28 12:50:04;;;;;;;40.85;19.92;;;7.70;99.90;;;;;;5059329;28;20167;-79
2022/01/28 12:52:34;;;;;;;34.40;18.33;;;7.70;99.90;;;;;;5065969;28;20286;-81
2022/01/28 12:55:00;;;;;;;42.17;19.42;;;7.90;99.90;;;;;;5055924;28;20263;-81
2022/01/28 12:57:26;;;;;;;45.05;21.13;;;8.10;99.90;;;;;;5059349;28;20310;-79
2022/01/28 12:59:52;;;;;;;38.67;20.17;;;8.20;99.90;;;;;;5058845;28;20651;-79
2022/01/28 13:02:19;;;;;;;41.53;18.85;;;8.40;99.90;;;;;;5059740;28;20321;-80
2022/01/28 13:10:29;;;;;;;38.97;19.98;;;7.90;99.90;;;;;;5058679;28;20179;-80
2022/01/28 13:13:21;;;;;;;39.80;19.17;;;7.80;99.90;;;;;;5058939;28;20261;-81
2022/01/28 13:15:54;;;;;;;43.00;19.02;;;7.80;99.90;;;;;;5053797;28;20644;-80
2022/01/28 13:18:20;;;;;;;45.10;20.05;;;7.80;99.90;;;;;;5056635;28;20202;-80
2022/01/28 13:20:46;;;;;;;42.95;20.35;;;7.90;99.90;;;;;;5055879;28;20206;-81
2022/01/28 13:23:12;;;;;;;50.00;20.65;;;8.10;99.90;;;;;;5058207;28;20207;-84
2022/01/28 13:25:38;;;;;;;48.33;20.00;;;8.20;99.90;;;;;;5056260;28;20202;-80
2022/01/28 13:28:14;;;;;;;40.47;17.70;;;8.30;99.90;;;;;;5057561;28;20156;-82
2022/01/28 13:30:41;;;;;;;43.30;18.60;;;8.10;99.90;;;;;;5036208;28;20203;-81
2022/01/28 13:33:08;;;;;;;53.03;20.83;;;8.10;99.90;;;;;;5036941;28;20226;-82
2022/01/28 13:35:37;;;;;;;46.25;20.30;;;7.90;99.90;;;;;;5036335;28;20168;-81
2022/01/28 13:38:14;;;;;;;52.72;21.75;;;7.80;99.90;;;;;;5035255;28;20206;-82
2022/01/28 13:40:40;;;;;;;47.65;21.45;;;7.90;99.90;;;;;;5038944;28;20191;-82
2022/01/28 13:43:13;;;;;;;52.50;22.58;;;7.90;99.90;;;;;;5038292;28;20298;-82
2022/01/28 13:45:55;;;;;;;52.42;22.67;;;8.10;99.90;;;;;;5038064;28;20588;-81
2022/01/28 13:48:39;;;;;;;66.25;25.65;;;8.00;99.90;;;;;;5037579;28;20233;-84
2022/01/28 13:51:06;;;;;;;48.20;20.60;;;8.30;99.90;;;;;;5036912;28;20179;-78
2022/01/28 13:56:26;;;;;;;50.63;21.27;;;8.00;99.90;;;;;;5054798;28;20164;-79
2022/01/28 13:58:53;;;;;;;57.67;20.45;;;7.90;99.90;;;;;;5056037;28;20180;-81
2022/01/28 14:01:21;;;;;;;47.08;19.73;;;7.80;99.90;;;;;;5055173;28;20183;-76
2022/01/28 14:03:58;;;;;;;50.55;21.65;;;7.70;99.90;;;;;;5055975;28;20164;-78
2022/01/28 14:06:32;;;;;;;53.53;22.77;;;7.90;99.90;;;;;;5052089;28;20176;-78
2022/01/28 14:09:19;;;;;;;49.15;20.88;;;8.00;99.90;;;;;;5051534;28;20182;-78
2022/01/28 14:11:49;;;;;;;54.30;21.08;;;8.10;99.90;;;;;;5033139;28;20230;-78
2022/01/28 14:14:20;;;;;;;58.28;20.75;;;8.20;99.90;;;;;;5047516;28;20243;-82
2022/01/28 14:17:04;;;;;;;51.58;22.60;;;8.10;99.90;;;;;;5048174;28;20695;-78
2022/01/28 14:19:36;;;;;;;44.55;19.77;;;8.10;99.90;;;;;;5045477;28;20167;-79
2022/01/28 14:22:03;;;;;;;51.20;20.85;;;8.10;99.90;;;;;;5049219;28;20211;-81
2022/01/28 14:24:37;;;;;;;49.42;21.13;;;8.10;99.90;;;;;;5031121;28;20289;-80
2022/01/28 14:32:11;;;;;;;60.25;21.52;;;8.30;99.90;;;;;;5049773;28;20191;-82